Time;durP1;ratioP1;P1;durP2;ratioP2;P2;SDS_P1;SDS_P2;PMS_P1;PMS_P2;Temp;Humidity;BMP_temperature;BMP_pressure;BME280_temperature;BME280_humidity;BME280_pressure;Samples;Min_cycle;Max_cycle;Signal;HPM_P1;HPM_P2
2021/06/21 00:00:29;;;;;;;3.17;0.98;;;20.40;76.80;;;;;;2349404;53;21453;-67
2021/06/21 00:02:55;;;;;;;6.03;1.30;;;20.40;76.90;;;;;;2349327;53;20974;-67
2021/06/21 00:05:21;;;;;;;4.97;1.25;;;20.50;76.90;;;;;;2345275;53;21003;-67
2021/06/21 00:07:48;;;;;;;5.18;0.70;;;20.50;77.00;;;;;;2347106;53;20930;-67
2021/06/21 00:10:15;;;;;;;4.53;0.50;;;20.50;76.90;;;;;;2349953;53;21010;-67
2021/06/21 00:12:44;;;;;;;3.47;0.80;;;20.50;76.80;;;;;;2347205;53;20954;-67
2021/06/21 00:15:15;;;;;;;4.60;0.80;;;20.50;76.80;;;;;;2349173;53;20932;-67
2021/06/21 00:17:41;;;;;;;4.37;0.88;;;20.50;76.80;;;;;;2352097;53;20983;-67
2021/06/21 00:20:08;;;;;;;4.90;1.10;;;20.50;76.80;;;;;;2347106;53;21402;-68
2021/06/21 00:22:34;;;;;;;3.05;0.98;;;20.50;76.70;;;;;;2543424;53;20998;-66
2021/06/21 00:25:01;;;;;;;4.82;0.77;;;20.50;76.70;;;;;;2427693;52;21030;-67
2021/06/21 00:27:27;;;;;;;4.57;1.10;;;20.50;76.70;;;;;;2347340;53;21541;-67
2021/06/21 00:29:53;;;;;;;3.37;0.68;;;20.50;76.80;;;;;;2587476;52;21020;-66
2021/06/21 00:32:19;;;;;;;2.80;0.73;;;20.50;76.80;;;;;;2481746;52;21070;-66
2021/06/21 00:34:47;;;;;;;5.70;1.00;;;20.50;76.80;;;;;;2351083;53;21002;-67
2021/06/21 00:37:14;;;;;;;2.37;0.57;;;20.40;76.80;;;;;;2588814;52;20938;-67
2021/06/21 00:39:40;;;;;;;4.62;1.58;;;20.50;77.00;;;;;;2346318;53;21423;-67
2021/06/21 00:42:07;;;;;;;3.20;0.70;;;20.50;77.10;;;;;;2345962;53;21453;-67
2021/06/21 00:44:33;;;;;;;5.65;0.85;;;20.50;77.10;;;;;;2352445;53;21012;-67
2021/06/21 00:47:00;;;;;;;5.25;1.10;;;20.50;77.10;;;;;;2349387;53;20959;-67
2021/06/21 00:49:26;;;;;;;5.00;1.02;;;20.50;77.10;;;;;;2347478;53;20986;-67
2021/06/21 00:51:53;;;;;;;3.50;0.98;;;20.50;77.10;;;;;;2350883;53;20949;-67
2021/06/21 00:54:19;;;;;;;4.05;0.70;;;20.50;77.00;;;;;;2347643;53;20950;-66
2021/06/21 00:56:46;;;;;;;4.07;1.00;;;20.50;77.10;;;;;;2351319;53;20918;-67
2021/06/21 00:59:13;;;;;;;3.53;1.50;;;20.50;77.10;;;;;;2352495;53;20986;-67
2021/06/21 01:01:40;;;;;;;2.83;0.93;;;20.60;77.20;;;;;;2350234;53;21046;-66
2021/06/21 01:04:07;;;;;;;4.53;0.73;;;20.50;77.10;;;;;;2346311;53;21002;-67
2021/06/21 01:06:33;;;;;;;3.25;0.77;;;20.60;77.20;;;;;;2351568;53;20945;-67
2021/06/21 01:09:00;;;;;;;4.45;0.70;;;20.50;77.00;;;;;;2345833;53;20954;-67
2021/06/21 01:11:43;;;;;;;2.83;0.77;;;20.60;77.10;;;;;;2461281;52;20919;-66
2021/06/21 01:14:14;;;;;;;5.82;1.05;;;20.60;77.00;;;;;;2354375;53;21893;-66
2021/06/21 01:17:30;;;;;;;2.80;0.80;;;20.60;77.00;;;;;;2346744;53;21069;-66
2021/06/21 01:20:13;;;;;;;3.47;0.80;;;20.60;76.10;;;;;;2349639;53;21002;-66
2021/06/21 01:22:56;;;;;;;2.75;0.73;;;20.60;76.60;;;;;;2346548;53;21351;-67
2021/06/21 01:25:41;;;;;;;3.85;0.90;;;20.70;76.80;;;;;;2364428;53;21055;-66
2021/06/21 01:30:23;;;;;;;4.87;0.98;;;20.60;76.50;;;;;;2347629;53;20958;-67
2021/06/21 01:32:59;;;;;;;3.58;0.60;;;20.70;76.50;;;;;;2591444;52;20926;-67
2021/06/21 01:35:41;;;;;;;5.72;0.93;;;20.70;76.60;;;;;;2590470;52;21009;-68
2021/06/21 01:38:13;;;;;;;3.17;0.80;;;20.70;76.40;;;;;;2352314;53;20930;-67
2021/06/21 01:40:42;;;;;;;5.30;1.08;;;20.70;76.60;;;;;;2349440;53;21488;-68
2021/06/21 01:43:13;;;;;;;3.75;1.00;;;20.70;76.70;;;;;;2346646;53;21411;-67
2021/06/21 01:45:39;;;;;;;6.15;1.02;;;20.70;76.70;;;;;;2562356;52;21046;-67
2021/06/21 01:48:06;;;;;;;5.93;1.10;;;20.70;76.70;;;;;;2414773;53;21029;-67
2021/06/21 01:50:32;;;;;;;2.67;0.57;;;20.70;76.50;;;;;;2345814;53;21081;-67
2021/06/21 01:53:33;;;;;;;2.53;0.70;;;20.70;76.60;;;;;;2350547;53;22418;-67
2021/06/21 01:56:10;;;;;;;3.37;0.90;;;20.70;75.70;;;;;;2350545;53;21735;-67
2021/06/21 01:58:37;;;;;;;3.53;0.80;;;20.70;76.10;;;;;;2348989;53;20966;-66
2021/06/21 02:01:04;;;;;;;5.20;1.00;;;20.70;76.60;;;;;;2584688;52;21472;-67
2021/06/21 02:03:30;;;;;;;5.90;1.10;;;20.70;76.50;;;;;;2346173;53;21049;-67
2021/06/21 02:05:57;;;;;;;4.30;0.90;;;20.70;76.60;;;;;;2346198;53;21873;-67
2021/06/21 02:08:23;;;;;;;4.32;0.98;;;20.70;76.70;;;;;;2588387;52;20922;-66
2021/06/21 02:10:51;;;;;;;2.15;0.75;;;20.70;76.70;;;;;;2351866;53;21006;-67
2021/06/21 02:13:21;;;;;;;2.28;0.60;;;20.70;76.80;;;;;;2353880;53;21502;-67
2021/06/21 02:15:47;;;;;;;6.05;0.70;;;20.70;76.90;;;;;;2347342;53;21435;-67
2021/06/21 02:18:16;;;;;;;4.72;0.88;;;20.80;77.00;;;;;;2347883;53;21282;-66
2021/06/21 02:20:42;;;;;;;3.50;0.88;;;20.80;77.00;;;;;;2346583;53;21407;-66
2021/06/21 02:23:10;;;;;;;5.05;0.60;;;20.70;76.90;;;;;;2355452;53;20974;-68
2021/06/21 02:25:39;;;;;;;3.47;0.70;;;20.80;76.90;;;;;;2346435;53;20990;-68
2021/06/21 02:28:05;;;;;;;3.25;0.70;;;20.80;76.80;;;;;;2588936;52;21017;-66
2021/06/21 02:30:33;;;;;;;2.33;0.60;;;20.80;77.00;;;;;;2349405;53;20950;-67
2021/06/21 02:32:59;;;;;;;3.67;1.20;;;20.80;76.90;;;;;;2353258;53;21471;-67
2021/06/21 02:35:26;;;;;;;3.87;1.25;;;20.80;76.80;;;;;;2348851;53;20959;-67
2021/06/21 02:37:52;;;;;;;6.18;0.98;;;20.80;76.60;;;;;;2352080;53;20946;-67
2021/06/21 02:40:19;;;;;;;3.03;0.98;;;20.80;76.60;;;;;;2587401;52;21170;-67
2021/06/21 02:42:45;;;;;;;3.85;0.82;;;20.80;76.70;;;;;;2347302;53;21759;-66
2021/06/21 02:45:12;;;;;;;3.42;1.02;;;20.80;76.70;;;;;;2347538;53;20962;-67
2021/06/21 02:47:39;;;;;;;4.12;1.00;;;20.80;76.70;;;;;;2587859;52;21283;-67
2021/06/21 02:50:06;;;;;;;4.57;1.08;;;20.80;76.70;;;;;;2588842;52;21786;-67
2021/06/21 02:53:02;;;;;;;5.82;1.10;;;20.80;76.80;;;;;;2348278;53;21375;-66
2021/06/21 02:56:37;;;;;;;2.55;0.95;;;20.80;76.20;;;;;;2327799;53;20918;-67
2021/06/21 02:59:15;;;;;;;2.95;0.80;;;20.80;75.80;;;;;;2413113;52;20942;-66
2021/06/21 03:01:51;;;;;;;4.05;1.00;;;20.80;77.30;;;;;;2346449;53;21430;-67
2021/06/21 03:04:18;;;;;;;5.62;1.30;;;20.80;76.70;;;;;;2587211;52;21046;-66
2021/06/21 03:06:45;;;;;;;4.07;0.93;;;20.80;76.60;;;;;;2346696;53;21356;-68
2021/06/21 03:09:11;;;;;;;6.90;1.37;;;20.80;76.60;;;;;;2347104;53;20915;-66
2021/06/21 03:11:38;;;;;;;5.45;1.00;;;20.80;76.60;;;;;;2408064;52;20993;-67
2021/06/21 03:14:04;;;;;;;2.60;0.80;;;20.80;76.60;;;;;;2345951;53;20958;-67
2021/06/21 03:16:30;;;;;;;3.17;0.80;;;20.80;76.80;;;;;;2346061;53;20914;-67
2021/06/21 03:18:56;;;;;;;4.32;1.00;;;20.80;76.60;;;;;;2440135;52;20933;-67
2021/06/21 03:21:23;;;;;;;4.25;0.77;;;20.80;76.60;;;;;;2346817;53;21514;-68
2021/06/21 03:23:52;;;;;;;2.67;0.80;;;20.80;76.60;;;;;;2348806;53;20986;-68
2021/06/21 03:26:28;;;;;;;3.78;0.93;;;20.80;76.40;;;;;;2588058;52;21291;-67
2021/06/21 03:28:55;;;;;;;4.90;1.12;;;20.80;76.20;;;;;;2345809;53;21010;-67
2021/06/21 03:31:21;;;;;;;2.80;0.93;;;20.80;76.60;;;;;;2346959;53;20985;-67
2021/06/21 03:33:48;;;;;;;2.60;0.85;;;20.80;76.70;;;;;;2585739;52;21732;-67
2021/06/21 03:36:14;;;;;;;4.25;0.80;;;20.70;76.50;;;;;;2467826;52;20926;-67
2021/06/21 03:38:40;;;;;;;3.67;0.90;;;20.80;76.80;;;;;;2347311;53;20954;-67
2021/06/21 03:41:06;;;;;;;7.05;1.00;;;20.80;76.90;;;;;;2349578;53;21349;-67
2021/06/21 03:43:33;;;;;;;7.85;1.10;;;20.80;76.90;;;;;;2385878;52;21505;-68
2021/06/21 03:46:00;;;;;;;2.08;0.50;;;20.80;76.80;;;;;;2346626;53;21379;-67
2021/06/21 03:48:27;;;;;;;2.78;0.57;;;20.80;76.90;;;;;;2348779;53;21038;-67
2021/06/21 03:50:53;;;;;;;1.98;0.62;;;20.80;77.00;;;;;;2349041;53;21006;-67
2021/06/21 03:53:21;;;;;;;3.05;0.60;;;20.80;77.00;;;;;;2345798;53;20930;-66
2021/06/21 03:55:47;;;;;;;3.35;0.62;;;20.80;77.00;;;;;;2351323;53;21558;-68
2021/06/21 03:58:13;;;;;;;2.33;0.60;;;20.80;77.10;;;;;;2347608;53;21540;-66
2021/06/21 04:00:40;;;;;;;3.08;0.90;;;20.80;77.10;;;;;;2349119;53;21340;-67
2021/06/21 04:03:08;;;;;;;3.75;0.60;;;20.80;77.10;;;;;;2349919;53;21317;-66
2021/06/21 04:05:37;;;;;;;2.78;0.60;;;20.80;77.10;;;;;;2346694;53;20954;-67
2021/06/21 04:08:04;;;;;;;2.83;0.60;;;20.80;77.10;;;;;;2344919;53;20965;-67
2021/06/21 04:10:30;;;;;;;2.10;0.55;;;20.80;77.20;;;;;;2389407;52;21013;-67
2021/06/21 04:12:57;;;;;;;1.37;0.40;;;20.80;77.10;;;;;;2552543;52;21952;-68
2021/06/21 04:15:33;;;;;;;1.90;0.52;;;20.80;77.20;;;;;;2345926;53;20970;-68
2021/06/21 04:18:00;;;;;;;2.65;0.60;;;20.80;77.20;;;;;;2327936;53;20961;-67
2021/06/21 04:20:27;;;;;;;2.08;0.70;;;20.80;77.30;;;;;;2347147;53;20949;-68
2021/06/21 04:22:53;;;;;;;2.72;0.90;;;20.90;77.30;;;;;;2346144;53;20953;-67
2021/06/21 04:25:19;;;;;;;3.08;0.75;;;20.80;77.30;;;;;;2330925;53;21794;-67
2021/06/21 04:27:46;;;;;;;3.78;0.85;;;20.80;77.30;;;;;;2345059;53;21017;-68
2021/06/21 04:30:13;;;;;;;2.40;0.65;;;20.80;78.00;;;;;;2346278;53;20930;-67
2021/06/21 04:32:40;;;;;;;3.47;0.93;;;20.90;77.40;;;;;;2347561;53;20926;-68
2021/06/21 04:35:10;;;;;;;2.17;0.60;;;20.90;77.40;;;;;;2350037;53;21364;-66
2021/06/21 04:37:37;;;;;;;1.62;0.60;;;20.90;77.30;;;;;;2347849;53;21561;-68
2021/06/21 04:40:05;;;;;;;1.73;0.50;;;20.90;77.30;;;;;;2350080;53;20977;-67
2021/06/21 04:42:31;;;;;;;1.73;0.60;;;20.90;77.30;;;;;;2349660;53;20956;-67
2021/06/21 04:45:00;;;;;;;3.15;0.90;;;20.90;77.30;;;;;;2349767;53;21026;-69
2021/06/21 04:47:26;;;;;;;2.05;0.52;;;20.90;77.30;;;;;;2327249;53;21024;-68
2021/06/21 04:49:53;;;;;;;3.05;0.80;;;20.90;77.40;;;;;;2347356;53;21514;-66
2021/06/21 04:52:22;;;;;;;1.77;0.60;;;20.90;77.40;;;;;;2556932;52;20967;-68
2021/06/21 04:54:48;;;;;;;2.72;0.73;;;20.90;77.50;;;;;;2349845;53;21460;-67
2021/06/21 04:57:15;;;;;;;4.00;0.70;;;21.00;78.30;;;;;;2346104;53;21028;-66
2021/06/21 04:59:41;;;;;;;3.25;0.77;;;21.00;77.70;;;;;;2348086;53;21419;-68
2021/06/21 05:02:07;;;;;;;4.03;0.70;;;21.00;77.80;;;;;;2347797;53;21695;-68
2021/06/21 05:04:33;;;;;;;2.97;0.60;;;21.00;77.80;;;;;;2345461;53;21491;-67
2021/06/21 05:07:02;;;;;;;4.43;0.70;;;21.10;78.10;;;;;;2350047;53;20946;-68
2021/06/21 05:09:28;;;;;;;4.00;0.73;;;21.10;77.90;;;;;;2326900;53;20977;-69
2021/06/21 05:11:54;;;;;;;2.35;0.82;;;21.10;78.00;;;;;;2347347;53;20977;-67
2021/06/21 05:14:22;;;;;;;3.53;0.90;;;21.10;78.70;;;;;;2347709;53;20942;-68
2021/06/21 05:16:51;;;;;;;3.75;0.70;;;21.20;78.00;;;;;;2347179;53;20942;-68
2021/06/21 05:19:17;;;;;;;2.45;0.70;;;21.20;78.00;;;;;;2588917;52;21409;-68
2021/06/21 05:21:43;;;;;;;3.22;1.00;;;21.20;78.20;;;;;;2346227;53;20969;-67
2021/06/21 05:24:10;;;;;;;3.05;1.12;;;21.20;78.20;;;;;;2354161;53;22421;-68
2021/06/21 05:26:36;;;;;;;5.18;1.35;;;21.30;78.30;;;;;;2345975;53;21025;-67
2021/06/21 05:29:02;;;;;;;3.12;0.93;;;21.30;78.30;;;;;;2348917;53;20993;-67
2021/06/21 05:31:28;;;;;;;3.45;0.90;;;21.30;78.50;;;;;;2349070;53;20918;-66
2021/06/21 05:33:55;;;;;;;5.13;1.30;;;21.40;78.60;;;;;;2394330;53;1624459;-67
2021/06/21 05:36:21;;;;;;;4.10;1.00;;;21.40;78.40;;;;;;2346724;53;20926;-69
2021/06/21 05:38:47;;;;;;;6.07;0.90;;;21.50;78.60;;;;;;2350155;53;20923;-67
2021/06/21 05:41:14;;;;;;;3.53;1.05;;;21.50;78.60;;;;;;2348653;53;20963;-68
2021/06/21 05:43:40;;;;;;;3.62;1.00;;;21.60;78.80;;;;;;2349098;53;21396;-67
2021/06/21 05:46:06;;;;;;;5.22;1.58;;;21.60;78.70;;;;;;2346700;53;20950;-67
2021/06/21 05:48:32;;;;;;;6.00;1.42;;;21.70;78.70;;;;;;2349525;53;20942;-68
2021/06/21 05:51:01;;;;;;;3.37;0.98;;;21.70;78.50;;;;;;2587442;52;20898;-67
2021/06/21 05:53:29;;;;;;;2.12;0.93;;;21.80;78.70;;;;;;2348923;53;20970;-67
2021/06/21 05:55:56;;;;;;;3.55;1.00;;;21.80;78.80;;;;;;2375863;53;20974;-68
2021/06/21 05:58:22;;;;;;;5.50;1.25;;;21.90;78.90;;;;;;2348222;53;21475;-67
2021/06/21 06:00:48;;;;;;;3.37;0.88;;;21.90;78.90;;;;;;2347337;53;21551;-67
2021/06/21 06:03:15;;;;;;;5.10;1.10;;;22.00;79.10;;;;;;2346332;53;21478;-68
2021/06/21 06:05:41;;;;;;;3.35;0.98;;;22.10;79.20;;;;;;2347204;53;20934;-67
2021/06/21 06:08:07;;;;;;;4.05;1.08;;;22.10;79.10;;;;;;2352175;53;21061;-67
2021/06/21 06:10:34;;;;;;;4.85;1.33;;;22.20;79.00;;;;;;2347410;53;20982;-67
2021/06/21 06:13:01;;;;;;;2.12;1.00;;;22.30;79.30;;;;;;2328811;53;20930;-68
2021/06/21 06:15:27;;;;;;;5.70;1.00;;;22.30;78.80;;;;;;2348319;53;21351;-68
2021/06/21 06:17:54;;;;;;;3.37;1.10;;;22.40;78.40;;;;;;2345245;53;20994;-68
2021/06/21 06:20:21;;;;;;;3.28;0.80;;;22.40;78.00;;;;;;2349531;53;21466;-69
2021/06/21 06:22:47;;;;;;;2.67;0.93;;;22.40;77.80;;;;;;2352229;53;21458;-67
2021/06/21 06:25:14;;;;;;;4.40;0.98;;;22.40;77.50;;;;;;2383350;53;20946;-67
2021/06/21 06:27:40;;;;;;;4.57;1.05;;;22.50;77.50;;;;;;2348320;53;21519;-69
2021/06/21 06:30:08;;;;;;;7.80;1.20;;;22.50;77.50;;;;;;2348270;53;21025;-69
2021/06/21 06:32:35;;;;;;;3.22;1.00;;;22.60;77.40;;;;;;2345982;53;21394;-68
2021/06/21 06:35:02;;;;;;;4.55;1.10;;;22.60;77.70;;;;;;2346609;53;21579;-68
2021/06/21 06:37:29;;;;;;;3.67;0.98;;;22.60;77.70;;;;;;2352957;53;20927;-68
2021/06/21 06:39:55;;;;;;;3.25;0.80;;;22.60;77.70;;;;;;2345836;53;21711;-69
2021/06/21 06:42:22;;;;;;;5.15;1.20;;;22.70;77.80;;;;;;2346278;53;21511;-70
2021/06/21 06:44:48;;;;;;;4.03;1.00;;;22.70;77.80;;;;;;2349872;53;21479;-67
2021/06/21 06:47:14;;;;;;;4.37;1.20;;;22.80;78.00;;;;;;2345553;53;21458;-70
2021/06/21 06:49:40;;;;;;;3.22;0.90;;;22.80;78.10;;;;;;2349474;53;20938;-67
2021/06/21 06:52:07;;;;;;;3.45;0.90;;;22.80;78.00;;;;;;2345357;53;20986;-69
2021/06/21 06:57:08;;;;;;;4.15;1.10;;;22.90;78.10;;;;;;2561603;52;20969;-68
2021/06/21 06:59:36;;;;;;;4.00;1.42;;;23.00;77.80;;;;;;2349166;53;20950;-68
2021/06/21 07:02:07;;;;;;;3.95;1.15;;;23.10;78.00;;;;;;2345484;53;20961;-66
2021/06/21 07:04:34;;;;;;;3.50;1.20;;;23.10;77.30;;;;;;2349264;53;21462;-68
2021/06/21 07:07:01;;;;;;;5.20;1.20;;;23.20;77.50;;;;;;2352240;53;20954;-69
2021/06/21 07:09:30;;;;;;;4.12;1.02;;;23.30;78.00;;;;;;2349571;53;20958;-67
2021/06/21 07:11:57;;;;;;;5.82;1.17;;;23.30;77.90;;;;;;2349031;53;20990;-67
2021/06/21 07:14:23;;;;;;;5.82;1.30;;;23.40;78.00;;;;;;2398247;52;21471;-69
2021/06/21 07:16:49;;;;;;;4.07;1.00;;;23.40;77.70;;;;;;2374364;52;20942;-67
2021/06/21 07:19:16;;;;;;;4.95;0.80;;;23.50;77.70;;;;;;2353459;53;20963;-67
2021/06/21 07:21:44;;;;;;;3.75;0.90;;;23.50;78.20;;;;;;2561104;52;20985;-67
2021/06/21 07:24:11;;;;;;;5.30;1.10;;;23.60;78.60;;;;;;2508168;52;21005;-68
2021/06/21 07:26:37;;;;;;;4.35;1.33;;;23.70;78.40;;;;;;2349815;53;20922;-68
2021/06/21 07:29:06;;;;;;;4.85;1.08;;;23.80;78.70;;;;;;2507938;52;20934;-69
2021/06/21 07:31:32;;;;;;;3.25;1.30;;;23.90;78.50;;;;;;2348302;53;20934;-67
2021/06/21 07:33:59;;;;;;;1.50;0.65;;;24.00;78.70;;;;;;2345749;53;21031;-68
2021/06/21 07:36:26;;;;;;;3.70;0.93;;;24.10;79.10;;;;;;2349320;53;20926;-68
2021/06/21 07:38:52;;;;;;;3.22;0.95;;;24.20;78.00;;;;;;2347740;53;20973;-68
2021/06/21 07:41:18;;;;;;;2.67;0.70;;;24.30;78.10;;;;;;2349239;53;21264;-67
2021/06/21 07:43:45;;;;;;;3.97;1.00;;;24.40;78.10;;;;;;2348821;53;20998;-68
2021/06/21 07:46:12;;;;;;;2.80;1.00;;;24.50;77.60;;;;;;2511462;52;21557;-68
2021/06/21 07:48:41;;;;;;;3.28;1.10;;;24.50;77.60;;;;;;2348709;53;21701;-67
2021/06/21 07:51:08;;;;;;;5.28;1.10;;;24.60;76.10;;;;;;2410730;52;21018;-68
2021/06/21 07:53:35;;;;;;;8.68;1.45;;;24.60;76.10;;;;;;2349192;53;21478;-70
2021/06/21 07:56:01;;;;;;;4.53;1.23;;;24.60;76.10;;;;;;2345969;53;20925;-68
2021/06/21 07:58:28;;;;;;;3.12;1.17;;;24.60;76.20;;;;;;2354552;53;21357;-69
2021/06/21 08:00:54;;;;;;;3.37;1.15;;;24.70;76.50;;;;;;2346628;53;20930;-68
2021/06/21 08:03:20;;;;;;;4.53;1.42;;;24.70;76.30;;;;;;2350584;53;21061;-68
2021/06/21 08:05:49;;;;;;;3.55;1.00;;;24.80;76.30;;;;;;2578628;52;20922;-67
2021/06/21 08:08:16;;;;;;;3.90;1.23;;;24.80;76.30;;;;;;2354577;53;21411;-67
2021/06/21 08:10:42;;;;;;;4.80;1.25;;;24.80;76.00;;;;;;2348937;53;20886;-68
2021/06/21 08:13:08;;;;;;;2.90;1.00;;;24.90;76.10;;;;;;2347041;53;21400;-68
2021/06/21 08:15:35;;;;;;;4.07;1.08;;;24.90;76.30;;;;;;2345693;53;21062;-68
2021/06/21 08:18:03;;;;;;;5.62;1.10;;;24.90;76.40;;;;;;2346565;53;21248;-68
2021/06/21 08:20:30;;;;;;;3.12;1.08;;;25.00;76.20;;;;;;2350935;53;21086;-69
2021/06/21 08:22:56;;;;;;;3.37;1.15;;;25.00;76.50;;;;;;2559131;52;21002;-70
2021/06/21 08:25:22;;;;;;;4.53;1.08;;;25.10;76.00;;;;;;2346601;53;20966;-71
2021/06/21 08:27:49;;;;;;;6.22;1.20;;;25.10;75.90;;;;;;2349911;53;20910;-70
2021/06/21 08:30:16;;;;;;;3.10;1.05;;;25.10;75.20;;;;;;2349181;53;20954;-67
2021/06/21 08:32:42;;;;;;;2.65;1.00;;;25.20;75.60;;;;;;2349846;53;21058;-67
2021/06/21 08:35:09;;;;;;;4.20;1.27;;;25.20;76.30;;;;;;2352618;53;20934;-70
2021/06/21 08:37:35;;;;;;;3.30;1.40;;;25.20;76.30;;;;;;2346485;53;21018;-68
2021/06/21 08:40:06;;;;;;;3.95;1.35;;;25.30;76.70;;;;;;2588465;52;20967;-71
2021/06/21 08:42:34;;;;;;;5.72;1.73;;;25.40;76.40;;;;;;2464356;52;21365;-68
2021/06/21 08:45:04;;;;;;;4.72;1.30;;;25.40;76.20;;;;;;2351534;53;20966;-68
2021/06/21 08:47:30;;;;;;;4.25;1.23;;;25.40;75.70;;;;;;2328113;53;20985;-68
2021/06/21 08:49:57;;;;;;;2.85;0.77;;;25.50;76.80;;;;;;2349041;53;20986;-67
2021/06/21 08:52:26;;;;;;;5.10;1.10;;;25.60;77.60;;;;;;2349200;53;20974;-68
2021/06/21 08:54:53;;;;;;;2.83;0.85;;;25.70;77.20;;;;;;2349445;53;20990;-68
2021/06/21 08:57:19;;;;;;;2.75;0.90;;;25.80;77.10;;;;;;2349504;53;20926;-68
2021/06/21 08:59:46;;;;;;;4.57;0.90;;;25.80;77.10;;;;;;2588657;52;21081;-68
2021/06/21 09:02:13;;;;;;;3.97;0.82;;;25.90;76.90;;;;;;2391060;53;20961;-68
2021/06/21 09:04:39;;;;;;;3.83;1.17;;;25.90;76.80;;;;;;2588975;52;20930;-68
2021/06/21 09:07:20;;;;;;;3.10;1.00;;;26.00;76.20;;;;;;2486658;52;21466;-68
2021/06/21 09:09:46;;;;;;;3.17;1.00;;;26.00;75.40;;;;;;2350723;53;20942;-68
2021/06/21 09:12:23;;;;;;;2.33;0.82;;;26.10;76.80;;;;;;2348309;53;20946;-68
2021/06/21 09:14:49;;;;;;;3.03;1.00;;;26.20;75.90;;;;;;2348342;53;21073;-67
2021/06/21 09:17:21;;;;;;;2.58;0.90;;;26.20;76.40;;;;;;2350655;53;21491;-68
2021/06/21 09:19:57;;;;;;;3.17;0.95;;;26.30;75.30;;;;;;2346661;53;20974;-67
2021/06/21 09:23:08;;;;;;;2.37;0.75;;;26.40;74.50;;;;;;2346493;53;20982;-67
2021/06/21 09:25:35;;;;;;;3.12;0.90;;;26.40;73.90;;;;;;2351953;53;21415;-67
2021/06/21 09:28:04;;;;;;;2.58;1.00;;;26.60;76.50;;;;;;2346033;53;21031;-68
2021/06/21 09:30:32;;;;;;;3.30;1.10;;;26.60;74.90;;;;;;2347579;53;21411;-68
2021/06/21 09:32:59;;;;;;;3.37;1.20;;;26.60;75.30;;;;;;2349704;53;21016;-69
2021/06/21 09:36:09;;;;;;;3.55;1.00;;;26.60;75.60;;;;;;2346065;53;21249;-67
2021/06/21 09:38:35;;;;;;;3.40;0.77;;;26.70;72.30;;;;;;2351159;53;21828;-69
2021/06/21 09:41:02;;;;;;;3.62;1.00;;;26.70;75.20;;;;;;2345887;53;21506;-69
2021/06/21 09:43:36;;;;;;;3.20;0.98;;;26.80;75.10;;;;;;2347462;53;20930;-67
2021/06/21 09:46:16;;;;;;;2.45;1.00;;;26.80;72.70;;;;;;2346087;53;20954;-68
2021/06/21 09:48:46;;;;;;;4.65;0.90;;;26.80;72.80;;;;;;2349329;53;20918;-68
2021/06/21 09:51:32;;;;;;;2.58;0.93;;;26.90;74.40;;;;;;2346033;53;21018;-68
2021/06/21 09:54:12;;;;;;;3.33;0.80;;;27.00;72.80;;;;;;2415593;53;21561;-68
2021/06/21 09:56:46;;;;;;;3.00;1.00;;;27.00;72.90;;;;;;2565010;52;20994;-68
2021/06/21 09:59:28;;;;;;;3.72;1.00;;;27.00;74.80;;;;;;2352478;53;21094;-68
2021/06/21 10:02:12;;;;;;;3.87;1.20;;;27.10;72.50;;;;;;2345704;53;21073;-67
2021/06/21 10:04:40;;;;;;;3.55;1.10;;;27.20;73.10;;;;;;2566953;52;21391;-68
2021/06/21 10:07:24;;;;;;;2.40;1.02;;;27.20;74.60;;;;;;2345804;53;21025;-67
2021/06/21 10:09:53;;;;;;;2.15;0.90;;;27.30;74.80;;;;;;2352626;53;20967;-67
2021/06/21 10:12:20;;;;;;;2.90;0.85;;;27.30;74.50;;;;;;2347174;53;21244;-68
2021/06/21 10:14:46;;;;;;;2.33;0.95;;;27.40;75.20;;;;;;2430011;53;21002;-71
2021/06/21 10:17:12;;;;;;;3.67;1.25;;;27.50;75.40;;;;;;2352047;53;20943;-70
2021/06/21 10:19:39;;;;;;;2.87;1.10;;;27.60;75.40;;;;;;2589320;52;21392;-68
2021/06/21 10:22:05;;;;;;;4.12;1.02;;;27.60;75.40;;;;;;2345388;53;20953;-68
2021/06/21 10:24:32;;;;;;;9.30;1.73;;;27.70;74.50;;;;;;2352791;53;20954;-68
2021/06/21 10:27:02;;;;;;;2.72;1.02;;;27.70;73.90;;;;;;2345957;53;20946;-70
2021/06/21 10:29:29;;;;;;;5.30;1.10;;;27.80;73.00;;;;;;2347042;53;21026;-67
2021/06/21 10:31:56;;;;;;;4.05;1.10;;;27.80;73.30;;;;;;2347348;53;21045;-70
2021/06/21 10:34:23;;;;;;;3.28;1.00;;;27.80;73.20;;;;;;2348365;53;21117;-70
2021/06/21 10:36:53;;;;;;;2.65;0.98;;;27.90;73.30;;;;;;2588639;52;21463;-69
2021/06/21 10:39:21;;;;;;;3.05;0.90;;;27.90;72.20;;;;;;2353349;53;20941;-67
2021/06/21 10:48:35;;;;;;;2.85;0.90;;;27.90;73.50;;;;;;2353384;53;21436;-68
2021/06/21 10:51:01;;;;;;;2.83;0.85;;;28.10;71.70;;;;;;2329312;53;20977;-67
2021/06/21 10:54:02;;;;;;;1.50;0.70;;;28.20;74.90;;;;;;2346645;53;21516;-68
2021/06/21 10:56:44;;;;;;;3.87;1.00;;;28.20;72.60;;;;;;2350274;53;20990;-68
2021/06/21 10:59:11;;;;;;;;;;;28.30;72.30;;;;;;2352558;53;21437;-68
2021/06/21 11:01:53;;;;;;;2.12;0.70;;;28.30;72.10;;;;;;2347031;53;20137;-67
2021/06/21 11:08:11;;;;;;;3.47;0.93;;;28.40;73.30;;;;;;2346903;53;20934;-68
2021/06/21 11:10:37;;;;;;;2.17;0.70;;;28.50;71.70;;;;;;2348946;53;20981;-68
2021/06/21 11:14:26;;;;;;;3.35;1.20;;;28.60;74.30;;;;;;2347500;53;20953;-69
2021/06/21 11:17:19;;;;;;;1.87;0.68;;;28.60;71.30;;;;;;2348750;53;20943;-67
2021/06/21 11:19:45;;;;;;;;;;;28.70;71.00;;;;;;2350998;53;21310;-68
2021/06/21 11:22:14;;;;;;;3.37;0.80;;;28.80;71.70;;;;;;2346399;53;20186;-66
2021/06/21 11:24:50;;;;;;;2.20;0.80;;;28.80;73.60;;;;;;2347729;53;21514;-67
2021/06/21 11:27:24;;;;;;;3.45;0.88;;;28.80;71.30;;;;;;2349977;53;21507;-67
2021/06/21 11:29:54;;;;;;;2.87;1.00;;;28.80;72.70;;;;;;2328847;54;25049;-67
2021/06/21 11:32:20;;;;;;;2.78;1.00;;;28.80;71.90;;;;;;2348340;53;21024;-67
2021/06/21 11:35:08;;;;;;;1.95;1.12;;;28.80;72.50;;;;;;2348693;53;20947;-67
2021/06/21 11:37:48;;;;;;;2.67;0.70;;;28.80;71.70;;;;;;2588432;52;20927;-67
2021/06/21 11:40:28;;;;;;;2.22;0.70;;;28.90;71.60;;;;;;2351412;53;21750;-67
2021/06/21 11:43:13;;;;;;;3.25;1.05;;;28.90;70.40;;;;;;2347461;53;21010;-70
2021/06/21 11:46:33;;;;;;;1.87;0.75;;;29.00;68.90;;;;;;2329178;53;21799;-70
2021/06/21 11:49:19;;;;;;;4.40;1.17;;;29.00;68.60;;;;;;2347625;57;21043;-67
2021/06/21 11:51:58;;;;;;;3.30;1.05;;;29.10;69.80;;;;;;2347571;57;21171;-67
2021/06/21 11:54:26;;;;;;;3.58;1.25;;;29.20;68.10;;;;;;2585803;52;21379;-68
2021/06/21 11:57:00;;;;;;;4.95;1.12;;;29.20;70.10;;;;;;2341337;53;21333;-68
2021/06/21 11:59:35;;;;;;;2.20;1.00;;;29.20;69.90;;;;;;2354392;53;21028;-70
2021/06/21 12:02:24;;;;;;;1.62;0.80;;;29.30;70.00;;;;;;2325313;54;21116;-70
2021/06/21 12:04:59;;;;;;;2.50;0.88;;;29.30;70.30;;;;;;2346574;53;21592;-68
2021/06/21 12:07:59;;;;;;;3.55;1.00;;;29.40;70.80;;;;;;2591266;52;20912;-67
2021/06/21 12:10:25;;;;;;;2.33;0.88;;;29.50;66.10;;;;;;2327476;53;20973;-68
2021/06/21 12:12:53;;;;;;;2.12;0.90;;;29.50;70.10;;;;;;2346315;53;20904;-69
2021/06/21 12:15:33;;;;;;;2.00;0.80;;;29.50;69.90;;;;;;2465035;52;21021;-68
2021/06/21 12:17:59;;;;;;;2.25;0.80;;;29.60;67.40;;;;;;2348344;53;20940;-68
2021/06/21 12:20:26;;;;;;;1.90;0.60;;;29.60;69.50;;;;;;2352942;53;21038;-67
2021/06/21 12:23:09;;;;;;;2.90;0.77;;;29.60;69.30;;;;;;2345004;53;21054;-70
2021/06/21 12:25:37;;;;;;;1.80;0.80;;;29.60;66.60;;;;;;2356524;53;20955;-69
2021/06/21 12:29:16;;;;;;;2.10;0.82;;;29.70;69.60;;;;;;2595637;52;20991;-70
2021/06/21 12:32:05;;;;;;;2.70;0.82;;;29.70;66.60;;;;;;2352075;53;20966;-68
2021/06/21 12:35:07;;;;;;;3.62;1.00;;;29.80;67.10;;;;;;2351045;53;21021;-68
2021/06/21 12:37:35;;;;;;;2.53;0.90;;;29.90;66.30;;;;;;2347589;53;20970;-68
2021/06/21 12:40:15;;;;;;;1.70;0.70;;;29.90;69.00;;;;;;2345735;53;20942;-67
2021/06/21 12:42:41;;;;;;;2.10;0.80;;;30.00;67.00;;;;;;2345109;53;20990;-69
2021/06/21 12:45:15;;;;;;;2.55;0.80;;;30.00;69.00;;;;;;2345528;53;20898;-68
2021/06/21 12:47:51;;;;;;;2.60;0.90;;;30.10;67.00;;;;;;2347864;53;20928;-67
2021/06/21 12:50:21;;;;;;;4.00;0.80;;;30.20;66.20;;;;;;2349099;53;21030;-69
2021/06/21 12:52:50;;;;;;;4.10;0.98;;;30.20;67.70;;;;;;2348477;53;21042;-67
2021/06/21 12:55:22;;;;;;;2.80;0.90;;;30.20;67.00;;;;;;2346726;53;21002;-68
2021/06/21 12:58:06;;;;;;;2.10;0.90;;;30.20;67.10;;;;;;2348850;53;20982;-70
2021/06/21 13:00:46;;;;;;;1.80;0.70;;;30.30;64.70;;;;;;2348870;53;21001;-67
2021/06/21 13:03:14;;;;;;;2.40;0.82;;;30.40;65.20;;;;;;2348193;53;21050;-68
2021/06/21 13:05:41;;;;;;;1.40;0.82;;;30.40;66.40;;;;;;2346478;53;21522;-69
2021/06/21 13:08:09;;;;;;;1.75;0.70;;;30.40;66.20;;;;;;2349781;53;21530;-70
2021/06/21 13:10:35;;;;;;;3.70;0.98;;;30.50;65.80;;;;;;2349114;53;21298;-68
2021/06/21 13:13:04;;;;;;;2.42;0.80;;;30.50;66.30;;;;;;2346405;53;21028;-67
2021/06/21 13:15:43;;;;;;;3.62;1.00;;;30.50;67.00;;;;;;2345556;53;21010;-67
2021/06/21 13:18:12;;;;;;;2.45;0.80;;;30.60;64.90;;;;;;2416116;52;20942;-65
2021/06/21 13:20:46;;;;;;;2.17;0.80;;;30.70;67.10;;;;;;2347027;53;21443;-66